Basye, VA

02:50 PM EDT 2016 abuztua ren 28 an (GMT -0400)
Bryce - Lake Laura | | Change Station

Elev 1401 ft 38.80 °N, 78.79 °W | Updated 2 minutes ago

Clear
Oskarbia
87.1 °F
Feels Like 88 °F
N
0.0
Haizea Aldagarria Haizea from HHE

Gaur
High -- | Low -- °F
--% Chance of Precip.
Yesterday
High -- | Low -- °F
Precip. -- in
Presioa 30.22 in
Ikusgaitasuna 10.0 Miliak
Clouds Oskarbia
Beroaren maila 88 °F
Ihintzaren maila 63 °F
Afoinua 45%
Rainfall 0.00 in
Snow Depth Not available.
6:41 AM 7:50 PM
Waning Crescent, 14% visible
METAR KLUA 281835Z AUTO 00000KT 10SM CLR 32/14 A3022 RMK AO2
Presioa 30.22 in
Ikusgaitasuna 10.0 Miliak
Clouds Oskarbia
Beroaren maila 88 °F
Ihintzaren maila 63 °F
Afoinua 45%
Rainfall 0.00 in
Snow Depth Not available.
6:41 AM 7:50 PM
Waning Crescent, 14% visible
METAR KLUA 281835Z AUTO 00000KT 10SM CLR 32/14 A3022 RMK AO2

10-Day Weather Forecast

Almanac

Astronomy

Aug. 28, 2016 Rise Set
Actual Time
Civil Twilight
Nautical Twilight
Astronomical Twilight
Moon
Length Of Visible Light
Length of Day
Tomorrow will be .
, % of the Moon is Illuminated

Today's Extremes

State Highs State Lows

Community

WunderPhotos

Upload Photos

1,935,647 photos uploaded!

WunderBlog® & News

Nearby

Air Quality

  Air Quality AQ Index Pollutant
Not available.

Snow Depth

Station Depth Elevation

Earthquake Activity

City Distance Mag. Time & Date
Minimum magnitude displayed is 2.5.

Coastal Water Temperatures

Lekua Tenperatura

Stations

Nearby Weather Stations

Station Location Temp Izozki haizeak Ihintzaren maila Afoinua Haizea Precip. Elev Eguneratuta Type
                   

Watches & Warnings

There are currently no watches in effect.